sensor_id;sensor_type;location;lat;lon;timestamp;pressure;altitude;pressure_sealevel;temperature;humidity
70833;BME280;58452;59.418;17.962;2023-04-20T00:00:31;103161.59;;;4.12;54.38
70833;BME280;58452;59.418;17.962;2023-04-20T00:02:56;103163.50;;;4.04;54.49
70833;BME280;58452;59.418;17.962;2023-04-20T00:05:23;103161.03;;;4.01;55.61
70833;BME280;58452;59.418;17.962;2023-04-20T00:07:48;103157.84;;;3.92;55.52
70833;BME280;58452;59.418;17.962;2023-04-20T00:10:13;103159.41;;;3.97;54.67
70833;BME280;58452;59.418;17.962;2023-04-20T00:12:40;103154.56;;;3.87;54.98
70833;BME280;58452;59.418;17.962;2023-04-20T00:15:05;103153.19;;;3.74;55.68
70833;BME280;58452;59.418;17.962;2023-04-20T00:17:31;103163.25;;;3.80;55.79
70833;BME280;58452;59.418;17.962;2023-04-20T00:19:56;103162.00;;;3.63;55.31
70833;BME280;58452;59.418;17.962;2023-04-20T00:22:21;103161.22;;;3.24;57.11
70833;BME280;58452;59.418;17.962;2023-04-20T00:24:47;103151.16;;;3.18;57.68
70833;BME280;58452;59.418;17.962;2023-04-20T00:27:12;103158.16;;;3.10;57.73
70833;BME280;58452;59.418;17.962;2023-04-20T00:29:37;103151.19;;;3.16;56.96
70833;BME280;58452;59.418;17.962;2023-04-20T00:32:02;103146.75;;;3.24;56.93
70833;BME280;58452;59.418;17.962;2023-04-20T00:34:28;103152.44;;;3.37;56.62
70833;BME280;58452;59.418;17.962;2023-04-20T00:36:53;103150.81;;;3.33;57.03
70833;BME280;58452;59.418;17.962;2023-04-20T00:39:19;103147.38;;;3.34;56.96
70833;BME280;58452;59.418;17.962;2023-04-20T00:41:44;103152.34;;;3.40;57.22
70833;BME280;58452;59.418;17.962;2023-04-20T00:44:09;103148.19;;;3.36;56.59
70833;BME280;58452;59.418;17.962;2023-04-20T00:46:38;103150.31;;;3.19;57.21
70833;BME280;58452;59.418;17.962;2023-04-20T00:49:03;103149.22;;;3.29;57.14
70833;BME280;58452;59.418;17.962;2023-04-20T00:51:29;103147.25;;;3.03;58.00
70833;BME280;58452;59.418;17.962;2023-04-20T00:53:55;103142.69;;;3.16;57.72
70833;BME280;58452;59.418;17.962;2023-04-20T00:56:21;103143.25;;;3.30;57.44
70833;BME280;58452;59.418;17.962;2023-04-20T00:58:47;103131.53;;;3.21;57.79
70833;BME280;58452;59.418;17.962;2023-04-20T01:01:12;103133.22;;;3.22;57.31
70833;BME280;58452;59.418;17.962;2023-04-20T01:03:41;103138.50;;;3.13;57.50
70833;BME280;58452;59.418;17.962;2023-04-20T01:06:06;103135.84;;;3.18;57.33
70833;BME280;58452;59.418;17.962;2023-04-20T01:08:32;103135.03;;;3.16;57.84
70833;BME280;58452;59.418;17.962;2023-04-20T01:10:58;103130.75;;;3.18;57.13
70833;BME280;58452;59.418;17.962;2023-04-20T01:13:23;103135.00;;;3.17;57.35
70833;BME280;58452;59.418;17.962;2023-04-20T01:15:48;103136.00;;;3.12;57.43
70833;BME280;58452;59.418;17.962;2023-04-20T01:18:15;103136.13;;;3.06;57.86
70833;BME280;58452;59.418;17.962;2023-04-20T01:20:42;103140.47;;;3.02;58.00
70833;BME280;58452;59.418;17.962;2023-04-20T01:23:07;103134.66;;;2.95;58.73
70833;BME280;58452;59.418;17.962;2023-04-20T01:25:32;103138.22;;;2.88;58.60
70833;BME280;58452;59.418;17.962;2023-04-20T01:27:58;103140.03;;;2.83;58.97
70833;BME280;58452;59.418;17.962;2023-04-20T01:30:23;103134.16;;;2.80;58.35
70833;BME280;58452;59.418;17.962;2023-04-20T01:32:48;103130.53;;;2.90;58.60
70833;BME280;58452;59.418;17.962;2023-04-20T01:35:13;103128.72;;;2.95;58.85
70833;BME280;58452;59.418;17.962;2023-04-20T01:37:40;103127.84;;;2.96;57.94
70833;BME280;58452;59.418;17.962;2023-04-20T01:40:09;103125.47;;;2.88;58.13
70833;BME280;58452;59.418;17.962;2023-04-20T01:42:34;103133.13;;;2.88;58.40
70833;BME280;58452;59.418;17.962;2023-04-20T01:45:00;103128.16;;;2.82;58.40
70833;BME280;58452;59.418;17.962;2023-04-20T01:47:25;103130.88;;;2.75;58.33
70833;BME280;58452;59.418;17.962;2023-04-20T01:49:51;103128.41;;;2.70;58.65
70833;BME280;58452;59.418;17.962;2023-04-20T01:52:16;103131.69;;;2.75;58.68
70833;BME280;58452;59.418;17.962;2023-04-20T01:54:41;103130.06;;;2.73;58.52
70833;BME280;58452;59.418;17.962;2023-04-20T01:57:06;103134.38;;;2.69;58.80
70833;BME280;58452;59.418;17.962;2023-04-20T01:59:32;103130.16;;;2.68;58.82
70833;BME280;58452;59.418;17.962;2023-04-20T02:01:57;103120.84;;;2.67;58.53
70833;BME280;58452;59.418;17.962;2023-04-20T02:04:23;103126.75;;;2.69;57.96
70833;BME280;58452;59.418;17.962;2023-04-20T02:06:48;103126.88;;;2.63;58.98
70833;BME280;58452;59.418;17.962;2023-04-20T02:09:13;103125.69;;;2.38;59.57
70833;BME280;58452;59.418;17.962;2023-04-20T02:11:39;103121.44;;;2.38;59.51
70833;BME280;58452;59.418;17.962;2023-04-20T02:14:04;103119.75;;;2.37;59.94
70833;BME280;58452;59.418;17.962;2023-04-20T02:16:30;103123.88;;;2.43;59.99
70833;BME280;58452;59.418;17.962;2023-04-20T02:18:55;103109.47;;;2.42;59.99
70833;BME280;58452;59.418;17.962;2023-04-20T02:21:20;103110.22;;;2.47;59.64
70833;BME280;58452;59.418;17.962;2023-04-20T02:23:46;103112.91;;;2.39;59.82
70833;BME280;58452;59.418;17.962;2023-04-20T02:26:11;103112.03;;;2.42;59.87
70833;BME280;58452;59.418;17.962;2023-04-20T02:28:36;103118.06;;;2.36;60.08
70833;BME280;58452;59.418;17.962;2023-04-20T02:31:02;103109.09;;;2.19;60.21
70833;BME280;58452;59.418;17.962;2023-04-20T02:33:27;103111.59;;;2.20;60.44
70833;BME280;58452;59.418;17.962;2023-04-20T02:35:52;103105.63;;;2.21;60.42
70833;BME280;58452;59.418;17.962;2023-04-20T02:38:17;103109.03;;;2.22;60.44
70833;BME280;58452;59.418;17.962;2023-04-20T02:40:43;103110.72;;;2.21;60.50
70833;BME280;58452;59.418;17.962;2023-04-20T02:43:08;103109.03;;;2.22;60.31
70833;BME280;58452;59.418;17.962;2023-04-20T02:45:33;103105.91;;;2.08;60.83
70833;BME280;58452;59.418;17.962;2023-04-20T02:47:59;103102.59;;;2.03;60.55
70833;BME280;58452;59.418;17.962;2023-04-20T02:50:24;103101.63;;;2.10;60.67
70833;BME280;58452;59.418;17.962;2023-04-20T02:52:50;103105.09;;;2.06;60.49
70833;BME280;58452;59.418;17.962;2023-04-20T02:55:15;103095.66;;;2.11;60.81
70833;BME280;58452;59.418;17.962;2023-04-20T02:57:41;103095.66;;;2.11;60.75
70833;BME280;58452;59.418;17.962;2023-04-20T03:00:06;103100.94;;;2.02;60.76
70833;BME280;58452;59.418;17.962;2023-04-20T03:02:33;103097.44;;;2.07;60.99
70833;BME280;58452;59.418;17.962;2023-04-20T03:04:58;103100.69;;;2.14;60.73
70833;BME280;58452;59.418;17.962;2023-04-20T03:07:24;103099.97;;;2.09;60.97
70833;BME280;58452;59.418;17.962;2023-04-20T03:09:50;103092.34;;;2.06;60.67
70833;BME280;58452;59.418;17.962;2023-04-20T03:12:15;103092.41;;;2.03;61.22
70833;BME280;58452;59.418;17.962;2023-04-20T03:14:42;103093.31;;;2.02;61.07
70833;BME280;58452;59.418;17.962;2023-04-20T03:17:07;103089.81;;;2.06;61.08
70833;BME280;58452;59.418;17.962;2023-04-20T03:19:32;103093.97;;;2.11;60.53
70833;BME280;58452;59.418;17.962;2023-04-20T03:21:58;103095.72;;;2.08;60.67
70833;BME280;58452;59.418;17.962;2023-04-20T03:24:23;103094.03;;;2.07;60.55
70833;BME280;58452;59.418;17.962;2023-04-20T03:26:48;103092.34;;;2.06;60.41
70833;BME280;58452;59.418;17.962;2023-04-20T03:29:14;103090.63;;;2.08;60.46
70833;BME280;58452;59.418;17.962;2023-04-20T03:31:39;103085.53;;;2.08;60.68
70833;BME280;58452;59.418;17.962;2023-04-20T03:34:05;103087.25;;;2.06;60.50
70833;BME280;58452;59.418;17.962;2023-04-20T03:36:30;103084.81;;;2.01;60.76
70833;BME280;58452;59.418;17.962;2023-04-20T03:38:56;103089.13;;;1.98;61.32
70833;BME280;58452;59.418;17.962;2023-04-20T03:41:21;103095.88;;;1.98;61.09
70833;BME280;58452;59.418;17.962;2023-04-20T03:43:47;103094.22;;;1.98;61.85
70833;BME280;58452;59.418;17.962;2023-04-20T03:46:12;103095.06;;;1.98;61.67
70833;BME280;58452;59.418;17.962;2023-04-20T03:48:37;103095.84;;;2.02;61.69
70833;BME280;58452;59.418;17.962;2023-04-20T03:51:03;103093.31;;;2.00;61.60
70833;BME280;58452;59.418;17.962;2023-04-20T03:53:28;103092.34;;;2.06;61.53
70833;BME280;58452;59.418;17.962;2023-04-20T03:55:53;103080.72;;;1.92;62.01
70833;BME280;58452;59.418;17.962;2023-04-20T03:58:19;103097.84;;;1.84;62.47
70833;BME280;58452;59.418;17.962;2023-04-20T04:00:45;103090.91;;;1.94;62.32
70833;BME280;58452;59.418;17.962;2023-04-20T04:03:11;103093.41;;;1.95;62.87
70833;BME280;58452;59.418;17.962;2023-04-20T04:05:36;103088.22;;;2.02;62.40
70833;BME280;58452;59.418;17.962;2023-04-20T04:08:01;103094.09;;;2.04;62.37
70833;BME280;58452;59.418;17.962;2023-04-20T04:10:26;103095.88;;;1.98;62.11
70833;BME280;58452;59.418;17.962;2023-04-20T04:12:52;103094.88;;;2.07;62.11
70833;BME280;58452;59.418;17.962;2023-04-20T04:15:17;103092.25;;;2.12;61.92
70833;BME280;58452;59.418;17.962;2023-04-20T04:17:45;103098.97;;;2.16;62.08
70833;BME280;58452;59.418;17.962;2023-04-20T04:20:10;103096.38;;;2.17;62.31
70833;BME280;58452;59.418;17.962;2023-04-20T04:22:36;103091.22;;;2.20;62.34
70833;BME280;58452;59.418;17.962;2023-04-20T04:25:01;103093.69;;;2.25;62.25
70833;BME280;58452;59.418;17.962;2023-04-20T04:27:27;103097.00;;;2.28;62.25
70833;BME280;58452;59.418;17.962;2023-04-20T04:29:58;103098.53;;;2.37;61.76
70833;BME280;58452;59.418;17.962;2023-04-20T04:32:23;103102.63;;;2.44;61.83
70833;BME280;58452;59.418;17.962;2023-04-20T04:34:49;103100.78;;;2.51;61.89
70833;BME280;58452;59.418;17.962;2023-04-20T04:37:14;103101.50;;;2.57;61.87
70833;BME280;58452;59.418;17.962;2023-04-20T04:39:40;103098.91;;;2.60;61.94
70833;BME280;58452;59.418;17.962;2023-04-20T04:42:05;103096.22;;;2.66;62.40
70833;BME280;58452;59.418;17.962;2023-04-20T04:44:30;103100.22;;;2.78;62.33
70833;BME280;58452;59.418;17.962;2023-04-20T04:46:57;103099.16;;;2.86;62.25
70833;BME280;58452;59.418;17.962;2023-04-20T04:49:22;103101.66;;;2.89;62.31
70833;BME280;58452;59.418;17.962;2023-04-20T04:51:51;103097.16;;;3.01;62.23
70833;BME280;58452;59.418;17.962;2023-04-20T04:54:16;103105.44;;;3.09;62.58
70833;BME280;58452;59.418;17.962;2023-04-20T04:56:41;103109.53;;;3.16;62.53
70833;BME280;58452;59.418;17.962;2023-04-20T04:59:06;103104.03;;;3.32;62.29
70833;BME280;58452;59.418;17.962;2023-04-20T05:01:32;103103.19;;;3.32;61.76
70833;BME280;58452;59.418;17.962;2023-04-20T05:03:57;103102.16;;;3.39;61.88
70833;BME280;58452;59.418;17.962;2023-04-20T05:06:22;103095.81;;;3.55;61.48
70833;BME280;58452;59.418;17.962;2023-04-20T05:08:48;103102.34;;;3.65;60.82
70833;BME280;58452;59.418;17.962;2023-04-20T05:11:13;103097.63;;;3.82;61.03
70833;BME280;58452;59.418;17.962;2023-04-20T05:13:38;103097.22;;;3.99;59.94
70833;BME280;58452;59.418;17.962;2023-04-20T05:16:04;103096.84;;;4.11;59.55
70833;BME280;58452;59.418;17.962;2023-04-20T05:18:29;103092.16;;;4.27;58.96
70833;BME280;58452;59.418;17.962;2023-04-20T05:20:54;103100.28;;;4.41;59.02
70833;BME280;58452;59.418;17.962;2023-04-20T05:23:19;103091.41;;;4.53;58.78
70833;BME280;58452;59.418;17.962;2023-04-20T05:25:45;103091.94;;;4.64;57.83
70833;BME280;58452;59.418;17.962;2023-04-20T05:28:10;103088.06;;;4.78;57.44
70833;BME280;58452;59.418;17.962;2023-04-20T05:30:35;103085.25;;;4.87;57.50
70833;BME280;58452;59.418;17.962;2023-04-20T05:33:01;103093.44;;;4.99;57.00
70833;BME280;58452;59.418;17.962;2023-04-20T05:35:26;103093.84;;;4.85;56.76
70833;BME280;58452;59.418;17.962;2023-04-20T05:37:51;103087.59;;;4.93;57.30
70833;BME280;58452;59.418;17.962;2023-04-20T05:40:17;103087.91;;;5.11;55.82
70833;BME280;58452;59.418;17.962;2023-04-20T05:42:42;103079.47;;;5.33;55.98
70833;BME280;58452;59.418;17.962;2023-04-20T05:45:07;103077.63;;;5.38;55.33
70833;BME280;58452;59.418;17.962;2023-04-20T05:47:33;103086.81;;;5.44;54.98
70833;BME280;58452;59.418;17.962;2023-04-20T05:49:58;103082.97;;;5.57;54.69
70833;BME280;58452;59.418;17.962;2023-04-20T05:52:23;103079.56;;;5.57;54.44
70833;BME280;58452;59.418;17.962;2023-04-20T05:54:49;103082.75;;;5.63;54.81
70833;BME280;58452;59.418;17.962;2023-04-20T05:57:14;103083.91;;;5.79;54.21
70833;BME280;58452;59.418;17.962;2023-04-20T05:59:40;103080.53;;;5.77;54.54
70833;BME280;58452;59.418;17.962;2023-04-20T06:02:05;103085.78;;;5.74;54.16
70833;BME280;58452;59.418;17.962;2023-04-20T06:04:30;103081.00;;;5.90;54.11
70833;BME280;58452;59.418;17.962;2023-04-20T06:06:56;103083.19;;;6.01;53.48
70833;BME280;58452;59.418;17.962;2023-04-20T06:09:21;103084.63;;;6.08;52.70
70833;BME280;58452;59.418;17.962;2023-04-20T06:11:46;103082.84;;;6.33;52.36
70833;BME280;58452;59.418;17.962;2023-04-20T06:14:12;103082.44;;;6.44;51.77
70833;BME280;58452;59.418;17.962;2023-04-20T06:16:38;103077.41;;;6.64;51.68
70833;BME280;58452;59.418;17.962;2023-04-20T06:19:04;103076.72;;;6.80;51.24
70833;BME280;58452;59.418;17.962;2023-04-20T06:21:29;103081.69;;;6.63;51.09
70833;BME280;58452;59.418;17.962;2023-04-20T06:23:55;103076.84;;;6.77;50.88
70833;BME280;58452;59.418;17.962;2023-04-20T06:26:21;103079.84;;;6.88;51.03
70833;BME280;58452;59.418;17.962;2023-04-20T06:28:47;103073.16;;;6.84;51.09
70833;BME280;58452;59.418;17.962;2023-04-20T06:31:12;103077.16;;;7.12;50.41
70833;BME280;58452;59.418;17.962;2023-04-20T06:33:37;103072.13;;;7.30;50.24
70833;BME280;58452;59.418;17.962;2023-04-20T06:36:05;103072.06;;;7.52;49.67
70833;BME280;58452;59.418;17.962;2023-04-20T06:38:30;103074.63;;;7.72;49.31
70833;BME280;58452;59.418;17.962;2023-04-20T06:40:55;103076.75;;;7.83;48.81
70833;BME280;58452;59.418;17.962;2023-04-20T06:43:23;103072.53;;;8.01;49.09
70833;BME280;58452;59.418;17.962;2023-04-20T06:45:48;103071.84;;;8.16;48.76
70833;BME280;58452;59.418;17.962;2023-04-20T06:48:13;103070.44;;;8.29;47.58
70833;BME280;58452;59.418;17.962;2023-04-20T06:50:39;103073.63;;;8.34;47.24
70833;BME280;58452;59.418;17.962;2023-04-20T06:53:04;103070.78;;;8.40;46.80
70833;BME280;58452;59.418;17.962;2023-04-20T06:55:29;103071.72;;;8.56;47.08
70833;BME280;58452;59.418;17.962;2023-04-20T06:57:55;103073.88;;;8.65;47.38
70833;BME280;58452;59.418;17.962;2023-04-20T07:00:20;103068.59;;;8.68;46.52
70833;BME280;58452;59.418;17.962;2023-04-20T07:02:46;103074.47;;;8.70;45.87
70833;BME280;58452;59.418;17.962;2023-04-20T07:05:12;103078.06;;;8.49;46.06
70833;BME280;58452;59.418;17.962;2023-04-20T07:07:38;103074.81;;;8.81;45.67
70833;BME280;58452;59.418;17.962;2023-04-20T07:10:03;103081.50;;;8.86;45.52
70833;BME280;58452;59.418;17.962;2023-04-20T07:12:29;103077.13;;;9.05;45.41
70833;BME280;58452;59.418;17.962;2023-04-20T07:14:54;103081.06;;;8.95;44.03
70833;BME280;58452;59.418;17.962;2023-04-20T07:17:20;103079.38;;;8.94;44.64
70833;BME280;58452;59.418;17.962;2023-04-20T07:19:45;103080.81;;;8.99;44.41
70833;BME280;58452;59.418;17.962;2023-04-20T07:22:10;103074.41;;;9.08;44.24
70833;BME280;58452;59.418;17.962;2023-04-20T07:24:35;103076.66;;;8.97;43.84
70833;BME280;58452;59.418;17.962;2023-04-20T07:27:01;103078.81;;;9.06;43.59
70833;BME280;58452;59.418;17.962;2023-04-20T07:29:27;103076.81;;;9.11;43.22
70833;BME280;58452;59.418;17.962;2023-04-20T07:31:52;103072.44;;;9.30;43.22
70833;BME280;58452;59.418;17.962;2023-04-20T07:34:17;103073.44;;;9.27;42.23
70833;BME280;58452;59.418;17.962;2023-04-20T07:36:42;103071.69;;;9.45;41.99
70833;BME280;58452;59.418;17.962;2023-04-20T07:39:08;103069.06;;;9.62;41.50
70833;BME280;58452;59.418;17.962;2023-04-20T07:41:33;103074.72;;;9.53;40.30
70833;BME280;58452;59.418;17.962;2023-04-20T07:43:58;103071.41;;;9.67;40.71
70833;BME280;58452;59.418;17.962;2023-04-20T07:46:24;103065.19;;;9.71;40.28
70833;BME280;58452;59.418;17.962;2023-04-20T07:48:50;103075.97;;;9.79;40.54
70833;BME280;58452;59.418;17.962;2023-04-20T07:51:15;103069.16;;;9.94;39.83
70833;BME280;58452;59.418;17.962;2023-04-20T07:53:41;103072.81;;;9.90;39.82
70833;BME280;58452;59.418;17.962;2023-04-20T07:56:06;103071.69;;;10.11;39.61
70833;BME280;58452;59.418;17.962;2023-04-20T07:58:31;103069.94;;;10.11;39.04
70833;BME280;58452;59.418;17.962;2023-04-20T08:00:57;103061.69;;;10.05;39.02
70833;BME280;58452;59.418;17.962;2023-04-20T08:03:22;103068.78;;;10.17;39.27
70833;BME280;58452;59.418;17.962;2023-04-20T08:05:48;103069.41;;;10.38;39.12
70833;BME280;58452;59.418;17.962;2023-04-20T08:08:13;103072.22;;;10.33;39.41
70833;BME280;58452;59.418;17.962;2023-04-20T08:10:38;103061.25;;;10.45;39.22
70833;BME280;58452;59.418;17.962;2023-04-20T08:13:03;103058.72;;;10.28;38.98
70833;BME280;58452;59.418;17.962;2023-04-20T08:15:29;103057.97;;;10.57;38.71
70833;BME280;58452;59.418;17.962;2023-04-20T08:17:55;103054.13;;;10.64;38.51
70833;BME280;58452;59.418;17.962;2023-04-20T08:20:20;103052.22;;;10.68;39.54
70833;BME280;58452;59.418;17.962;2023-04-20T08:22:45;103053.22;;;10.65;38.82
70833;BME280;58452;59.418;17.962;2023-04-20T08:25:11;103062.41;;;10.55;39.00
70833;BME280;58452;59.418;17.962;2023-04-20T08:27:36;103061.56;;;10.70;39.24
70833;BME280;58452;59.418;17.962;2023-04-20T08:30:01;103053.53;;;10.75;38.93
70833;BME280;58452;59.418;17.962;2023-04-20T08:32:28;103051.16;;;11.02;38.66
70833;BME280;58452;59.418;17.962;2023-04-20T08:34:54;103049.91;;;11.23;38.53
70833;BME280;58452;59.418;17.962;2023-04-20T08:37:19;103044.63;;;11.10;38.74
70833;BME280;58452;59.418;17.962;2023-04-20T08:39:44;103044.84;;;11.21;38.87
70833;BME280;58452;59.418;17.962;2023-04-20T08:42:10;103048.66;;;11.44;39.17
70833;BME280;58452;59.418;17.962;2023-04-20T08:44:37;103050.88;;;11.64;37.97
70833;BME280;58452;59.418;17.962;2023-04-20T08:47:02;103045.28;;;11.86;37.47
70833;BME280;58452;59.418;17.962;2023-04-20T08:49:28;103037.34;;;12.03;38.07
70833;BME280;58452;59.418;17.962;2023-04-20T08:53:31;103041.66;;;12.17;42.70
70833;BME280;58452;59.418;17.962;2023-04-20T08:55:57;103037.16;;;12.33;35.43
70833;BME280;58452;59.418;17.962;2023-04-20T08:58:24;103030.09;;;12.49;37.97
70833;BME280;58452;59.418;17.962;2023-04-20T09:00:50;103038.22;;;12.57;36.19
70833;BME280;58452;59.418;17.962;2023-04-20T09:03:15;103031.16;;;12.59;34.44
70833;BME280;58452;59.418;17.962;2023-04-20T09:05:43;103027.66;;;12.60;33.14
70833;BME280;58452;59.418;17.962;2023-04-20T09:08:08;103033.63;;;12.88;32.17
70833;BME280;58452;59.418;17.962;2023-04-20T09:10:42;103030.97;;;13.02;33.45
70833;BME280;58452;59.418;17.962;2023-04-20T09:13:09;103026.66;;;13.15;34.53
70833;BME280;58452;59.418;17.962;2023-04-20T09:15:45;103033.41;;;13.30;34.27
70833;BME280;58452;59.418;17.962;2023-04-20T09:18:11;103032.16;;;13.48;34.20
70833;BME280;58452;59.418;17.962;2023-04-20T09:20:38;103021.16;;;13.57;33.85
70833;BME280;58452;59.418;17.962;2023-04-20T09:23:15;103014.13;;;13.34;32.65
70833;BME280;58452;59.418;17.962;2023-04-20T09:25:42;103022.00;;;13.45;34.01
70833;BME280;58452;59.418;17.962;2023-04-20T09:28:10;103017.22;;;13.64;32.22
70833;BME280;58452;59.418;17.962;2023-04-20T09:30:42;103024.44;;;13.85;32.80
70833;BME280;58452;59.418;17.962;2023-04-20T09:33:08;103016.88;;;13.82;32.94
70833;BME280;58452;59.418;17.962;2023-04-20T09:35:39;103010.09;;;13.92;32.63
70833;BME280;58452;59.418;17.962;2023-04-20T09:38:10;103006.81;;;14.13;33.10
70833;BME280;58452;59.418;17.962;2023-04-20T09:40:36;103009.53;;;14.12;33.30
70833;BME280;58452;59.418;17.962;2023-04-20T09:43:08;103003.72;;;14.32;33.89
70833;BME280;58452;59.418;17.962;2023-04-20T09:45:37;102997.13;;;14.52;33.47
70833;BME280;58452;59.418;17.962;2023-04-20T09:48:06;102993.19;;;14.70;33.13
70833;BME280;58452;59.418;17.962;2023-04-20T09:50:34;102998.69;;;14.89;32.75
70833;BME280;58452;59.418;17.962;2023-04-20T09:53:01;102998.22;;;15.06;32.52
70833;BME280;58452;59.418;17.962;2023-04-20T09:55:29;102996.34;;;15.20;32.81
70833;BME280;58452;59.418;17.962;2023-04-20T09:57:55;102991.22;;;14.85;30.48
70833;BME280;58452;59.418;17.962;2023-04-20T10:00:21;103004.03;;;14.04;31.28
70833;BME280;58452;59.418;17.962;2023-04-20T10:02:47;103002.66;;;13.75;31.51
70833;BME280;58452;59.418;17.962;2023-04-20T10:05:12;102993.44;;;14.07;31.17
70833;BME280;58452;59.418;17.962;2023-04-20T10:07:38;102986.69;;;14.41;29.90
70833;BME280;58452;59.418;17.962;2023-04-20T10:10:11;102987.38;;;14.66;31.05
70833;BME280;58452;59.418;17.962;2023-04-20T10:15:12;102979.66;;;14.89;30.98
70833;BME280;58452;59.418;17.962;2023-04-20T10:17:38;102974.22;;;15.03;30.48
70833;BME280;58452;59.418;17.962;2023-04-20T10:20:17;102972.09;;;15.08;30.82
70833;BME280;58452;59.418;17.962;2023-04-20T10:22:42;102965.34;;;15.05;30.08
70833;BME280;58452;59.418;17.962;2023-04-20T10:25:16;102971.66;;;15.36;31.60
70833;BME280;58452;59.418;17.962;2023-04-20T10:27:57;102965.63;;;15.47;31.51
70833;BME280;58452;59.418;17.962;2023-04-20T10:30:24;102966.25;;;15.61;31.24
70833;BME280;58452;59.418;17.962;2023-04-20T10:33:08;102954.63;;;15.32;30.04
70833;BME280;58452;59.418;17.962;2023-04-20T10:35:51;102960.53;;;15.45;30.82
70833;BME280;58452;59.418;17.962;2023-04-20T10:38:32;102951.09;;;15.55;29.33
70833;BME280;58452;59.418;17.962;2023-04-20T10:41:09;102947.78;;;15.53;30.54
70833;BME280;58452;59.418;17.962;2023-04-20T10:43:35;102950.00;;;15.80;30.68
70833;BME280;58452;59.418;17.962;2023-04-20T10:46:21;102944.16;;;15.99;29.81
70833;BME280;58452;59.418;17.962;2023-04-20T10:51:16;102946.44;;;15.03;28.36
70833;BME280;58452;59.418;17.962;2023-04-20T10:53:42;102943.38;;;15.32;29.39
70833;BME280;58452;59.418;17.962;2023-04-20T10:56:07;102935.47;;;15.44;28.97
70833;BME280;58452;59.418;17.962;2023-04-20T10:58:32;102937.09;;;15.79;30.52
70833;BME280;58452;59.418;17.962;2023-04-20T11:01:03;102918.28;;;16.07;30.58
70833;BME280;58452;59.418;17.962;2023-04-20T11:03:30;102916.31;;;16.31;27.99
70833;BME280;58452;59.418;17.962;2023-04-20T11:05:57;102914.91;;;16.48;30.88
70833;BME280;58452;59.418;17.962;2023-04-20T11:08:41;102908.91;;;16.16;28.16
70833;BME280;58452;59.418;17.962;2023-04-20T11:11:21;102906.47;;;16.55;29.41
70833;BME280;58452;59.418;17.962;2023-04-20T11:13:49;102907.00;;;16.91;29.42
70833;BME280;58452;59.418;17.962;2023-04-20T11:16:16;102908.19;;;17.17;28.66
70833;BME280;58452;59.418;17.962;2023-04-20T11:18:49;102908.53;;;17.33;27.42
70833;BME280;58452;59.418;17.962;2023-04-20T11:21:19;102899.13;;;17.21;26.68
70833;BME280;58452;59.418;17.962;2023-04-20T11:23:45;102895.16;;;16.87;26.51
70833;BME280;58452;59.418;17.962;2023-04-20T11:26:11;102899.66;;;17.05;28.73
70833;BME280;58452;59.418;17.962;2023-04-20T11:28:36;102894.53;;;17.34;27.82
70833;BME280;58452;59.418;17.962;2023-04-20T11:31:02;102893.13;;;17.21;27.10
70833;BME280;58452;59.418;17.962;2023-04-20T11:33:29;102891.44;;;16.48;27.77
70833;BME280;58452;59.418;17.962;2023-04-20T11:35:56;102892.59;;;16.34;28.17
70833;BME280;58452;59.418;17.962;2023-04-20T11:38:29;102886.97;;;16.18;28.55
70833;BME280;58452;59.418;17.962;2023-04-20T11:40:55;102885.38;;;16.58;28.71
70833;BME280;58452;59.418;17.962;2023-04-20T11:43:21;102878.53;;;16.57;29.00
70833;BME280;58452;59.418;17.962;2023-04-20T11:45:47;102884.59;;;16.26;28.58
70833;BME280;58452;59.418;17.962;2023-04-20T11:48:12;102878.78;;;16.02;29.01
70833;BME280;58452;59.418;17.962;2023-04-20T11:50:37;102882.13;;;16.45;28.42
70833;BME280;58452;59.418;17.962;2023-04-20T11:53:03;102875.06;;;16.78;29.27
70833;BME280;58452;59.418;17.962;2023-04-20T11:55:29;102874.53;;;17.14;27.63
70833;BME280;58452;59.418;17.962;2023-04-20T11:57:55;102866.31;;;16.88;28.00
70833;BME280;58452;59.418;17.962;2023-04-20T12:00:21;102863.75;;;16.26;28.30
70833;BME280;58452;59.418;17.962;2023-04-20T12:02:46;102865.53;;;16.46;28.85
70833;BME280;58452;59.418;17.962;2023-04-20T12:05:12;102861.16;;;16.98;29.89
70833;BME280;58452;59.418;17.962;2023-04-20T12:07:37;102865.41;;;16.69;27.64
70833;BME280;58452;59.418;17.962;2023-04-20T12:10:04;102846.53;;;16.76;27.75
70833;BME280;58452;59.418;17.962;2023-04-20T12:12:29;102853.25;;;17.09;28.68
70833;BME280;58452;59.418;17.962;2023-04-20T12:14:55;102846.44;;;17.46;27.95
70833;BME280;58452;59.418;17.962;2023-04-20T12:17:20;102839.09;;;17.71;27.20
70833;BME280;58452;59.418;17.962;2023-04-20T12:19:46;102849.69;;;17.20;26.67
70833;BME280;58452;59.418;17.962;2023-04-20T12:22:12;102849.59;;;16.91;29.08
70833;BME280;58452;59.418;17.962;2023-04-20T12:24:37;102847.09;;;16.80;27.65
70833;BME280;58452;59.418;17.962;2023-04-20T12:27:02;102843.56;;;17.00;28.84
70833;BME280;58452;59.418;17.962;2023-04-20T12:29:30;102829.66;;;17.39;29.04
70833;BME280;58452;59.418;17.962;2023-04-20T12:31:57;102832.34;;;17.58;26.78
70833;BME280;58452;59.418;17.962;2023-04-20T12:34:22;102839.66;;;16.85;26.72
70833;BME280;58452;59.418;17.962;2023-04-20T12:36:48;102832.28;;;16.18;27.35
70833;BME280;58452;59.418;17.962;2023-04-20T12:39:13;102831.34;;;16.40;27.27
70833;BME280;58452;59.418;17.962;2023-04-20T12:41:40;102829.50;;;16.82;27.71
70833;BME280;58452;59.418;17.962;2023-04-20T12:44:05;102815.06;;;17.18;26.96
70833;BME280;58452;59.418;17.962;2023-04-20T12:46:31;102816.88;;;17.36;27.27